sensor_id;sensor_type;location;lat;lon;timestamp;temperature;humidity
48898;DHT22;34713;50.038;20.000;2022-10-18T00:01:16;15.44;63.25
48898;DHT22;34713;50.038;20.000;2022-10-18T00:03:43;15.42;63.26
48898;DHT22;34713;50.038;20.000;2022-10-18T00:06:09;15.38;63.26
48898;DHT22;34713;50.038;20.000;2022-10-18T00:08:37;15.39;63.44
48898;DHT22;34713;50.038;20.000;2022-10-18T00:11:04;15.37;63.56
48898;DHT22;34713;50.038;20.000;2022-10-18T00:13:30;15.34;63.56
48898;DHT22;34713;50.038;20.000;2022-10-18T00:15:59;15.31;63.55
48898;DHT22;34713;50.038;20.000;2022-10-18T00:18:26;15.28;63.57
48898;DHT22;34713;50.038;20.000;2022-10-18T00:20:59;15.27;63.61
48898;DHT22;34713;50.038;20.000;2022-10-18T00:23:26;15.27;63.63
48898;DHT22;34713;50.038;20.000;2022-10-18T00:28:30;15.21;63.68
48898;DHT22;34713;50.038;20.000;2022-10-18T00:30:56;15.15;63.79
48898;DHT22;34713;50.038;20.000;2022-10-18T00:33:22;15.14;63.78
48898;DHT22;34713;50.038;20.000;2022-10-18T00:35:48;15.11;63.77
48898;DHT22;34713;50.038;20.000;2022-10-18T00:38:14;15.08;63.76
48898;DHT22;34713;50.038;20.000;2022-10-18T00:40:40;15.07;63.72
48898;DHT22;34713;50.038;20.000;2022-10-18T00:43:12;15.04;63.71
48898;DHT22;34713;50.038;20.000;2022-10-18T00:45:37;15.01;63.65
48898;DHT22;34713;50.038;20.000;2022-10-18T00:48:03;15.00;63.60
48898;DHT22;34713;50.038;20.000;2022-10-18T00:50:32;14.94;63.59
48898;DHT22;34713;50.038;20.000;2022-10-18T00:53:02;14.93;63.59
48898;DHT22;34713;50.038;20.000;2022-10-18T00:55:31;14.89;63.55
48898;DHT22;34713;50.038;20.000;2022-10-18T00:57:57;14.87;63.53
48898;DHT22;34713;50.038;20.000;2022-10-18T01:00:23;14.83;63.50
48898;DHT22;34713;50.038;20.000;2022-10-18T01:02:49;14.83;63.58
48898;DHT22;34713;50.038;20.000;2022-10-18T01:05:18;14.80;63.68
48898;DHT22;34713;50.038;20.000;2022-10-18T01:08:18;14.77;63.73
48898;DHT22;34713;50.038;20.000;2022-10-18T01:11:11;14.72;63.78
48898;DHT22;34713;50.038;20.000;2022-10-18T01:25:28;14.60;64.11
48898;DHT22;34713;50.038;20.000;2022-10-18T01:28:37;14.58;64.12
48898;DHT22;34713;50.038;20.000;2022-10-18T01:31:08;14.56;64.10
48898;DHT22;34713;50.038;20.000;2022-10-18T01:33:39;14.53;64.08
48898;DHT22;34713;50.038;20.000;2022-10-18T01:38:52;14.51;64.11
48898;DHT22;34713;50.038;20.000;2022-10-18T01:41:21;14.51;64.20
48898;DHT22;34713;50.038;20.000;2022-10-18T01:43:51;14.51;64.32
48898;DHT22;34713;50.038;20.000;2022-10-18T01:46:21;14.49;64.42
48898;DHT22;34713;50.038;20.000;2022-10-18T01:48:49;14.48;64.42
48898;DHT22;34713;50.038;20.000;2022-10-18T01:51:21;14.45;64.50
48898;DHT22;34713;50.038;20.000;2022-10-18T01:53:46;14.43;64.54
48898;DHT22;34713;50.038;20.000;2022-10-18T01:56:54;14.43;64.59
48898;DHT22;34713;50.038;20.000;2022-10-18T02:08:06;14.32;64.58
48898;DHT22;34713;50.038;20.000;2022-10-18T02:10:46;14.32;64.61
48898;DHT22;34713;50.038;20.000;2022-10-18T02:13:16;14.28;64.61
48898;DHT22;34713;50.038;20.000;2022-10-18T02:15:46;14.28;64.64
48898;DHT22;34713;50.038;20.000;2022-10-18T02:18:23;14.27;64.63
48898;DHT22;34713;50.038;20.000;2022-10-18T02:20:47;14.27;64.64
48898;DHT22;34713;50.038;20.000;2022-10-18T02:23:14;14.24;64.69
48898;DHT22;34713;50.038;20.000;2022-10-18T02:25:40;14.22;64.70
48898;DHT22;34713;50.038;20.000;2022-10-18T02:28:06;14.21;64.75
48898;DHT22;34713;50.038;20.000;2022-10-18T02:33:57;14.14;64.84
48898;DHT22;34713;50.038;20.000;2022-10-18T02:36:30;14.14;64.95
48898;DHT22;34713;50.038;20.000;2022-10-18T02:39:00;14.12;64.97
48898;DHT22;34713;50.038;20.000;2022-10-18T02:41:27;14.10;65.00
48898;DHT22;34713;50.038;20.000;2022-10-18T02:43:53;14.11;65.00
48898;DHT22;34713;50.038;20.000;2022-10-18T02:46:19;14.10;65.01
48898;DHT22;34713;50.038;20.000;2022-10-18T02:48:45;14.10;65.02
48898;DHT22;34713;50.038;20.000;2022-10-18T02:51:11;14.07;65.04
48898;DHT22;34713;50.038;20.000;2022-10-18T02:53:37;14.05;65.08
48898;DHT22;34713;50.038;20.000;2022-10-18T02:56:03;14.02;65.09
48898;DHT22;34713;50.038;20.000;2022-10-18T02:58:29;14.02;65.13
48898;DHT22;34713;50.038;20.000;2022-10-18T03:00:55;14.01;65.12
48898;DHT22;34713;50.038;20.000;2022-10-18T03:03:21;14.00;65.06
48898;DHT22;34713;50.038;20.000;2022-10-18T03:05:51;13.98;65.08
48898;DHT22;34713;50.038;20.000;2022-10-18T03:08:18;13.97;65.04
48898;DHT22;34713;50.038;20.000;2022-10-18T03:10:45;13.97;65.06
48898;DHT22;34713;50.038;20.000;2022-10-18T03:13:11;13.97;65.13
48898;DHT22;34713;50.038;20.000;2022-10-18T03:15:37;13.94;65.11
48898;DHT22;34713;50.038;20.000;2022-10-18T03:18:03;13.96;65.13
48898;DHT22;34713;50.038;20.000;2022-10-18T03:20:29;13.93;65.15
48898;DHT22;34713;50.038;20.000;2022-10-18T03:22:55;13.97;65.15
48898;DHT22;34713;50.038;20.000;2022-10-18T03:25:21;13.94;65.11
48898;DHT22;34713;50.038;20.000;2022-10-18T03:27:47;13.91;65.06
48898;DHT22;34713;50.038;20.000;2022-10-18T03:30:13;13.90;65.02
48898;DHT22;34713;50.038;20.000;2022-10-18T03:32:39;13.87;65.05
48898;DHT22;34713;50.038;20.000;2022-10-18T03:35:07;13.91;65.08
48898;DHT22;34713;50.038;20.000;2022-10-18T03:37:34;13.89;65.11
48898;DHT22;34713;50.038;20.000;2022-10-18T03:40:00;13.90;65.13
48898;DHT22;34713;50.038;20.000;2022-10-18T03:42:26;13.87;65.13
48898;DHT22;34713;50.038;20.000;2022-10-18T03:44:52;13.87;65.11
48898;DHT22;34713;50.038;20.000;2022-10-18T03:47:17;13.86;65.14
48898;DHT22;34713;50.038;20.000;2022-10-18T03:49:43;13.84;65.15
48898;DHT22;34713;50.038;20.000;2022-10-18T03:52:09;13.86;65.17
48898;DHT22;34713;50.038;20.000;2022-10-18T03:54:35;13.86;65.16
48898;DHT22;34713;50.038;20.000;2022-10-18T03:57:01;13.86;65.19
48898;DHT22;34713;50.038;20.000;2022-10-18T03:59:26;13.86;65.19
48898;DHT22;34713;50.038;20.000;2022-10-18T04:01:52;13.86;65.18
48898;DHT22;34713;50.038;20.000;2022-10-18T04:04:18;13.83;65.19
48898;DHT22;34713;50.038;20.000;2022-10-18T04:06:44;13.84;65.17
48898;DHT22;34713;50.038;20.000;2022-10-18T04:09:10;13.86;65.17
48898;DHT22;34713;50.038;20.000;2022-10-18T04:11:36;13.86;65.12
48898;DHT22;34713;50.038;20.000;2022-10-18T04:14:02;13.83;65.11
48898;DHT22;34713;50.038;20.000;2022-10-18T04:16:28;13.84;65.00
48898;DHT22;34713;50.038;20.000;2022-10-18T04:18:54;13.84;64.92
48898;DHT22;34713;50.038;20.000;2022-10-18T04:21:20;13.84;64.96
48898;DHT22;34713;50.038;20.000;2022-10-18T04:23:49;13.81;64.95
48898;DHT22;34713;50.038;20.000;2022-10-18T04:26:15;13.80;64.94
48898;DHT22;34713;50.038;20.000;2022-10-18T04:28:42;13.77;64.95
48898;DHT22;34713;50.038;20.000;2022-10-18T04:31:09;13.76;64.93
48898;DHT22;34713;50.038;20.000;2022-10-18T04:33:36;13.76;64.94
48898;DHT22;34713;50.038;20.000;2022-10-18T04:36:02;13.69;64.94
48898;DHT22;34713;50.038;20.000;2022-10-18T04:38:28;13.66;65.01
48898;DHT22;34713;50.038;20.000;2022-10-18T04:40:54;13.62;65.18
48898;DHT22;34713;50.038;20.000;2022-10-18T04:43:20;13.56;65.30
48898;DHT22;34713;50.038;20.000;2022-10-18T04:45:47;13.53;65.36
48898;DHT22;34713;50.038;20.000;2022-10-18T04:48:14;13.50;65.44
48898;DHT22;34713;50.038;20.000;2022-10-18T04:50:39;13.49;65.47
48898;DHT22;34713;50.038;20.000;2022-10-18T04:53:05;13.47;65.45
48898;DHT22;34713;50.038;20.000;2022-10-18T04:55:31;13.47;65.43
48898;DHT22;34713;50.038;20.000;2022-10-18T04:57:57;13.46;65.45
48898;DHT22;34713;50.038;20.000;2022-10-18T05:00:23;13.45;65.41
48898;DHT22;34713;50.038;20.000;2022-10-18T05:02:48;13.45;65.38
48898;DHT22;34713;50.038;20.000;2022-10-18T05:05:14;13.45;65.39
48898;DHT22;34713;50.038;20.000;2022-10-18T05:07:40;13.49;65.43
48898;DHT22;34713;50.038;20.000;2022-10-18T05:10:08;13.50;65.47
48898;DHT22;34713;50.038;20.000;2022-10-18T05:12:34;13.49;65.43
48898;DHT22;34713;50.038;20.000;2022-10-18T05:14:59;13.45;65.39
48898;DHT22;34713;50.038;20.000;2022-10-18T05:17:25;13.49;65.35
48898;DHT22;34713;50.038;20.000;2022-10-18T05:19:51;13.47;65.29
48898;DHT22;34713;50.038;20.000;2022-10-18T05:22:17;13.50;65.22
48898;DHT22;34713;50.038;20.000;2022-10-18T05:24:42;13.50;65.21
48898;DHT22;34713;50.038;20.000;2022-10-18T05:27:08;13.53;65.15
48898;DHT22;34713;50.038;20.000;2022-10-18T05:29:35;13.56;65.06
48898;DHT22;34713;50.038;20.000;2022-10-18T05:32:01;13.59;65.06
48898;DHT22;34713;50.038;20.000;2022-10-18T05:34:27;13.60;64.97
48898;DHT22;34713;50.038;20.000;2022-10-18T05:36:55;13.63;64.96
48898;DHT22;34713;50.038;20.000;2022-10-18T05:39:22;13.67;64.93
48898;DHT22;34713;50.038;20.000;2022-10-18T05:41:47;13.89;64.79
48898;DHT22;34713;50.038;20.000;2022-10-18T05:44:13;14.22;64.40
48898;DHT22;34713;50.038;20.000;2022-10-18T05:46:39;14.52;63.92
48898;DHT22;34713;50.038;20.000;2022-10-18T05:49:05;14.75;63.51
48898;DHT22;34713;50.038;20.000;2022-10-18T05:51:31;14.84;63.22
48898;DHT22;34713;50.038;20.000;2022-10-18T05:53:57;14.83;63.31
48898;DHT22;34713;50.038;20.000;2022-10-18T05:56:23;14.83;63.61
48898;DHT22;34713;50.038;20.000;2022-10-18T05:58:50;14.82;63.96
48898;DHT22;34713;50.038;20.000;2022-10-18T06:01:16;14.80;64.20
48898;DHT22;34713;50.038;20.000;2022-10-18T06:03:42;14.83;64.26
48898;DHT22;34713;50.038;20.000;2022-10-18T06:06:10;14.87;64.22
48898;DHT22;34713;50.038;20.000;2022-10-18T06:08:38;14.86;64.04
48898;DHT22;34713;50.038;20.000;2022-10-18T06:13:43;14.90;63.83
48898;DHT22;34713;50.038;20.000;2022-10-18T06:16:12;14.93;63.85
48898;DHT22;34713;50.038;20.000;2022-10-18T06:18:38;14.96;63.85
48898;DHT22;34713;50.038;20.000;2022-10-18T06:21:05;15.03;63.83
48898;DHT22;34713;50.038;20.000;2022-10-18T06:23:32;15.13;63.78
48898;DHT22;34713;50.038;20.000;2022-10-18T06:26:00;15.25;63.80
48898;DHT22;34713;50.038;20.000;2022-10-18T06:28:27;15.41;63.75
48898;DHT22;34713;50.038;20.000;2022-10-18T06:30:53;15.49;63.54
48898;DHT22;34713;50.038;20.000;2022-10-18T06:33:19;15.56;63.38
48898;DHT22;34713;50.038;20.000;2022-10-18T06:36:04;15.70;63.22
48898;DHT22;34713;50.038;20.000;2022-10-18T06:38:27;15.83;63.16
48898;DHT22;34713;50.038;20.000;2022-10-18T06:40:55;15.94;62.88
48898;DHT22;34713;50.038;20.000;2022-10-18T06:43:21;16.00;62.71
48898;DHT22;34713;50.038;20.000;2022-10-18T06:45:48;16.10;62.67
48898;DHT22;34713;50.038;20.000;2022-10-18T06:48:15;16.19;62.65
48898;DHT22;34713;50.038;20.000;2022-10-18T06:50:41;16.35;62.68
48898;DHT22;34713;50.038;20.000;2022-10-18T06:53:07;16.43;62.54
48898;DHT22;34713;50.038;20.000;2022-10-18T06:55:34;16.58;62.47
48898;DHT22;34713;50.038;20.000;2022-10-18T06:58:01;16.68;62.96
48898;DHT22;34713;50.038;20.000;2022-10-18T07:00:26;16.83;62.97
48898;DHT22;34713;50.038;20.000;2022-10-18T07:02:52;16.99;62.72
48898;DHT22;34713;50.038;20.000;2022-10-18T07:05:18;17.12;62.42
48898;DHT22;34713;50.038;20.000;2022-10-18T07:07:44;17.26;62.05
48898;DHT22;34713;50.038;20.000;2022-10-18T07:10:09;17.38;61.88
48898;DHT22;34713;50.038;20.000;2022-10-18T07:12:35;17.52;61.85
48898;DHT22;34713;50.038;20.000;2022-10-18T07:15:01;17.67;61.73
48898;DHT22;34713;50.038;20.000;2022-10-18T07:17:27;17.82;61.07
48898;DHT22;34713;50.038;20.000;2022-10-18T07:19:53;17.93;60.56
48898;DHT22;34713;50.038;20.000;2022-10-18T07:22:19;18.06;60.21
48898;DHT22;34713;50.038;20.000;2022-10-18T07:24:44;18.15;59.89
48898;DHT22;34713;50.038;20.000;2022-10-18T07:27:10;18.26;59.60
48898;DHT22;34713;50.038;20.000;2022-10-18T07:29:36;18.24;59.33
48898;DHT22;34713;50.038;20.000;2022-10-18T07:32:04;18.10;59.39
48898;DHT22;34713;50.038;20.000;2022-10-18T07:34:30;17.92;59.66
48898;DHT22;34713;50.038;20.000;2022-10-18T07:36:55;17.82;59.85
48898;DHT22;34713;50.038;20.000;2022-10-18T07:39:22;17.77;60.00
48898;DHT22;34713;50.038;20.000;2022-10-18T07:41:48;17.72;59.80
48898;DHT22;34713;50.038;20.000;2022-10-18T07:44:13;17.67;60.01
48898;DHT22;34713;50.038;20.000;2022-10-18T07:46:39;17.68;60.23
48898;DHT22;34713;50.038;20.000;2022-10-18T07:49:05;17.68;60.03
48898;DHT22;34713;50.038;20.000;2022-10-18T07:51:30;17.70;60.19
48898;DHT22;34713;50.038;20.000;2022-10-18T07:53:58;17.72;60.26
48898;DHT22;34713;50.038;20.000;2022-10-18T07:56:24;17.75;60.04
48898;DHT22;34713;50.038;20.000;2022-10-18T07:58:52;17.78;59.96
48898;DHT22;34713;50.038;20.000;2022-10-18T08:01:21;17.86;59.68
48898;DHT22;34713;50.038;20.000;2022-10-18T08:03:47;17.86;59.52
48898;DHT22;34713;50.038;20.000;2022-10-18T08:06:16;17.89;59.44
48898;DHT22;34713;50.038;20.000;2022-10-18T08:08:43;17.93;59.50
48898;DHT22;34713;50.038;20.000;2022-10-18T08:11:17;17.99;59.38
48898;DHT22;34713;50.038;20.000;2022-10-18T08:13:44;18.03;59.15
48898;DHT22;34713;50.038;20.000;2022-10-18T08:16:14;18.09;58.90
48898;DHT22;34713;50.038;20.000;2022-10-18T08:18:40;18.15;58.65
48898;DHT22;34713;50.038;20.000;2022-10-18T08:21:09;18.20;58.42
48898;DHT22;34713;50.038;20.000;2022-10-18T08:23:36;18.29;58.13
48898;DHT22;34713;50.038;20.000;2022-10-18T08:26:06;18.37;57.95
48898;DHT22;34713;50.038;20.000;2022-10-18T08:28:33;18.44;57.90
48898;DHT22;34713;50.038;20.000;2022-10-18T08:31:10;18.50;57.59
48898;DHT22;34713;50.038;20.000;2022-10-18T08:33:37;18.56;57.50
48898;DHT22;34713;50.038;20.000;2022-10-18T08:36:07;18.63;57.34
48898;DHT22;34713;50.038;20.000;2022-10-18T08:38:35;18.71;57.22
48898;DHT22;34713;50.038;20.000;2022-10-18T08:46:45;18.87;56.77
48898;DHT22;34713;50.038;20.000;2022-10-18T08:50:04;18.95;56.53
48898;DHT22;34713;50.038;20.000;2022-10-18T08:51:55;18.95;56.55
48898;DHT22;34713;50.038;20.000;2022-10-18T08:54:54;19.03;56.69
48898;DHT22;34713;50.038;20.000;2022-10-18T08:57:18;19.12;56.26
48898;DHT22;34713;50.038;20.000;2022-10-18T08:59:44;19.15;55.99
48898;DHT22;34713;50.038;20.000;2022-10-18T09:02:23;19.19;55.64
48898;DHT22;34713;50.038;20.000;2022-10-18T09:04:59;19.23;55.17
48898;DHT22;34713;50.038;20.000;2022-10-18T09:10:55;19.27;54.85
48898;DHT22;34713;50.038;20.000;2022-10-18T09:16:44;19.35;55.03
48898;DHT22;34713;50.038;20.000;2022-10-18T09:22:12;19.43;54.59
48898;DHT22;34713;50.038;20.000;2022-10-18T09:25:08;19.49;54.35
48898;DHT22;34713;50.038;20.000;2022-10-18T09:27:45;19.52;54.31
48898;DHT22;34713;50.038;20.000;2022-10-18T09:30:48;19.58;54.37
48898;DHT22;34713;50.038;20.000;2022-10-18T09:33:34;19.61;54.37
48898;DHT22;34713;50.038;20.000;2022-10-18T09:36:04;19.64;54.37
48898;DHT22;34713;50.038;20.000;2022-10-18T09:38:41;19.67;54.13
48898;DHT22;34713;50.038;20.000;2022-10-18T09:44:11;19.70;53.99
48898;DHT22;34713;50.038;20.000;2022-10-18T09:46:41;19.73;54.03
48898;DHT22;34713;50.038;20.000;2022-10-18T09:49:31;19.74;53.72
48898;DHT22;34713;50.038;20.000;2022-10-18T09:52:02;19.76;53.85
48898;DHT22;34713;50.038;20.000;2022-10-18T09:54:48;19.77;53.95
48898;DHT22;34713;50.038;20.000;2022-10-18T09:59:55;19.81;53.83
48898;DHT22;34713;50.038;20.000;2022-10-18T10:02:23;19.85;54.04
48898;DHT22;34713;50.038;20.000;2022-10-18T10:04:49;19.88;53.92
48898;DHT22;34713;50.038;20.000;2022-10-18T10:07:34;19.89;53.78
48898;DHT22;34713;50.038;20.000;2022-10-18T10:10:09;19.91;54.06
48898;DHT22;34713;50.038;20.000;2022-10-18T10:12:36;19.92;53.43
48898;DHT22;34713;50.038;20.000;2022-10-18T10:15:24;19.94;53.36
48898;DHT22;34713;50.038;20.000;2022-10-18T10:20:44;19.95;53.41
48898;DHT22;34713;50.038;20.000;2022-10-18T10:25:58;19.98;52.98
48898;DHT22;34713;50.038;20.000;2022-10-18T10:28:34;19.97;53.10
48898;DHT22;34713;50.038;20.000;2022-10-18T10:31:30;19.98;53.21
48898;DHT22;34713;50.038;20.000;2022-10-18T10:36:50;20.03;52.87
48898;DHT22;34713;50.038;20.000;2022-10-18T10:39:18;20.01;52.46
48898;DHT22;34713;50.038;20.000;2022-10-18T10:41:51;20.01;52.51
48898;DHT22;34713;50.038;20.000;2022-10-18T10:44:21;20.00;52.64
48898;DHT22;34713;50.038;20.000;2022-10-18T10:46:49;20.03;52.78
48898;DHT22;34713;50.038;20.000;2022-10-18T10:49:30;20.04;52.96
48898;DHT22;34713;50.038;20.000;2022-10-18T10:52:00;20.03;52.77
48898;DHT22;34713;50.038;20.000;2022-10-18T10:54:28;20.04;52.59
48898;DHT22;34713;50.038;20.000;2022-10-18T10:59:45;20.03;52.47
48898;DHT22;34713;50.038;20.000;2022-10-18T11:04:44;20.05;52.54
48898;DHT22;34713;50.038;20.000;2022-10-18T11:07:34;20.07;52.51
48898;DHT22;34713;50.038;20.000;2022-10-18T11:12:37;20.07;52.39
48898;DHT22;34713;50.038;20.000;2022-10-18T11:15:23;20.09;52.28
48898;DHT22;34713;50.038;20.000;2022-10-18T11:18:29;20.09;52.14
48898;DHT22;34713;50.038;20.000;2022-10-18T11:21:04;20.14;51.74
48898;DHT22;34713;50.038;20.000;2022-10-18T11:23:35;20.16;51.71
48898;DHT22;34713;50.038;20.000;2022-10-18T11:40:13;20.31;50.61
48898;DHT22;34713;50.038;20.000;2022-10-18T11:46:10;20.39;50.41
48898;DHT22;34713;50.038;20.000;2022-10-18T12:05:48;20.63;49.02
48898;DHT22;34713;50.038;20.000;2022-10-18T12:08:22;20.62;48.25
48898;DHT22;34713;50.038;20.000;2022-10-18T12:10:52;20.64;47.79
48898;DHT22;34713;50.038;20.000;2022-10-18T12:13:24;20.70;47.49
48898;DHT22;34713;50.038;20.000;2022-10-18T12:15:50;20.76;47.03
48898;DHT22;34713;50.038;20.000;2022-10-18T12:18:20;20.76;46.81
48898;DHT22;34713;50.038;20.000;2022-10-18T12:20:50;20.80;46.67
48898;DHT22;34713;50.038;20.000;2022-10-18T12:23:55;20.83;46.70
48898;DHT22;34713;50.038;20.000;2022-10-18T12:26:21;20.86;46.68
48898;DHT22;34713;50.038;20.000;2022-10-18T12:29:17;20.87;46.55
48898;DHT22;34713;50.038;20.000;2022-10-18T12:31:50;20.93;46.56
48898;DHT22;34713;50.038;20.000;2022-10-18T12:34:26;20.95;46.52
48898;DHT22;34713;50.038;20.000;2022-10-18T12:42:23;21.03;46.61
48898;DHT22;34713;50.038;20.000;2022-10-18T12:45:16;21.03;46.21
48898;DHT22;34713;50.038;20.000;2022-10-18T12:47:33;21.07;46.02
48898;DHT22;34713;50.038;20.000;2022-10-18T12:50:04;21.07;45.71
48898;DHT22;34713;50.038;20.000;2022-10-18T12:52:31;21.10;45.22
48898;DHT22;34713;50.038;20.000;2022-10-18T12:58:00;21.12;44.95
48898;DHT22;34713;50.038;20.000;2022-10-18T13:05:56;21.17;44.54
48898;DHT22;34713;50.038;20.000;2022-10-18T13:08:38;21.21;44.42
48898;DHT22;34713;50.038;20.000;2022-10-18T13:11:34;21.22;44.54
48898;DHT22;34713;50.038;20.000;2022-10-18T13:19:15;21.25;44.61
48898;DHT22;34713;50.038;20.000;2022-10-18T13:21:56;21.25;44.73
48898;DHT22;34713;50.038;20.000;2022-10-18T13:27:50;21.28;44.71
48898;DHT22;34713;50.038;20.000;2022-10-18T13:44:27;21.37;44.76
48898;DHT22;34713;50.038;20.000;2022-10-18T13:55:53;21.37;44.50
48898;DHT22;34713;50.038;20.000;2022-10-18T14:01:41;21.40;44.59
48898;DHT22;34713;50.038;20.000;2022-10-18T14:07:10;21.37;44.76
48898;DHT22;34713;50.038;20.000;2022-10-18T14:09:50;21.35;44.70
48898;DHT22;34713;50.038;20.000;2022-10-18T14:15:35;21.30;45.02
48898;DHT22;34713;50.038;20.000;2022-10-18T14:18:06;21.31;45.08
48898;DHT22;34713;50.038;20.000;2022-10-18T14:20:37;21.30;45.31
48898;DHT22;34713;50.038;20.000;2022-10-18T14:23:20;21.27;45.23
48898;DHT22;34713;50.038;20.000;2022-10-18T14:25:47;21.27;45.35
48898;DHT22;34713;50.038;20.000;2022-10-18T14:28:21;21.21;45.45
48898;DHT22;34713;50.038;20.000;2022-10-18T14:31:10;21.22;45.44
48898;DHT22;34713;50.038;20.000;2022-10-18T14:33:52;21.22;45.51
48898;DHT22;34713;50.038;20.000;2022-10-18T14:36:23;21.18;45.77
48898;DHT22;34713;50.038;20.000;2022-10-18T14:39:06;21.18;45.81
48898;DHT22;34713;50.038;20.000;2022-10-18T14:41:35;21.18;46.03
48898;DHT22;34713;50.038;20.000;2022-10-18T14:49:20;21.07;46.31
48898;DHT22;34713;50.038;20.000;2022-10-18T14:51:50;21.08;46.73
48898;DHT22;34713;50.038;20.000;2022-10-18T14:54:32;21.03;46.85
48898;DHT22;34713;50.038;20.000;2022-10-18T14:57:01;21.00;46.80
48898;DHT22;34713;50.038;20.000;2022-10-18T14:59:36;20.98;46.78
48898;DHT22;34713;50.038;20.000;2022-10-18T15:02:13;20.97;46.71
48898;DHT22;34713;50.038;20.000;2022-10-18T15:04:43;20.93;46.92
48898;DHT22;34713;50.038;20.000;2022-10-18T15:07:17;20.89;47.12
48898;DHT22;34713;50.038;20.000;2022-10-18T15:09:43;20.84;47.28
48898;DHT22;34713;50.038;20.000;2022-10-18T15:12:12;20.83;47.35
48898;DHT22;34713;50.038;20.000;2022-10-18T15:14:40;20.80;47.48
48898;DHT22;34713;50.038;20.000;2022-10-18T15:17:11;20.77;47.61
48898;DHT22;34713;50.038;20.000;2022-10-18T15:19:38;20.73;47.79
48898;DHT22;34713;50.038;20.000;2022-10-18T15:22:07;20.70;47.87
48898;DHT22;34713;50.038;20.000;2022-10-18T15:24:36;20.67;48.00
48898;DHT22;34713;50.038;20.000;2022-10-18T15:27:23;20.63;48.12
48898;DHT22;34713;50.038;20.000;2022-10-18T15:29:49;20.59;48.27
48898;DHT22;34713;50.038;20.000;2022-10-18T15:32:20;20.54;48.36
48898;DHT22;34713;50.038;20.000;2022-10-18T15:34:46;20.52;48.31
48898;DHT22;34713;50.038;20.000;2022-10-18T15:37:43;20.47;48.51
48898;DHT22;34713;50.038;20.000;2022-10-18T15:40:33;20.40;48.67
48898;DHT22;34713;50.038;20.000;2022-10-18T15:45:53;20.31;48.94
48898;DHT22;34713;50.038;20.000;2022-10-18T15:48:38;20.26;49.11
48898;DHT22;34713;50.038;20.000;2022-10-18T15:51:08;20.22;49.18
48898;DHT22;34713;50.038;20.000;2022-10-18T15:53:53;20.18;49.35
48898;DHT22;34713;50.038;20.000;2022-10-18T15:56:34;20.12;49.49
48898;DHT22;34713;50.038;20.000;2022-10-18T15:59:04;20.05;49.68
48898;DHT22;34713;50.038;20.000;2022-10-18T16:01:42;20.03;49.86
48898;DHT22;34713;50.038;20.000;2022-10-18T16:04:27;19.94;50.08
48898;DHT22;34713;50.038;20.000;2022-10-18T16:06:55;19.91;50.26
48898;DHT22;34713;50.038;20.000;2022-10-18T16:09:24;19.87;50.40
48898;DHT22;34713;50.038;20.000;2022-10-18T16:11:51;19.82;50.47
48898;DHT22;34713;50.038;20.000;2022-10-18T16:14:18;19.77;50.65
48898;DHT22;34713;50.038;20.000;2022-10-18T16:16:44;19.71;50.74
48898;DHT22;34713;50.038;20.000;2022-10-18T16:19:15;19.67;50.88
48898;DHT22;34713;50.038;20.000;2022-10-18T16:21:43;19.60;51.17
48898;DHT22;34713;50.038;20.000;2022-10-18T16:24:10;19.58;51.33
48898;DHT22;34713;50.038;20.000;2022-10-18T16:26:36;19.53;51.49
48898;DHT22;34713;50.038;20.000;2022-10-18T16:29:03;19.50;51.53
48898;DHT22;34713;50.038;20.000;2022-10-18T16:31:32;19.43;51.55
48898;DHT22;34713;50.038;20.000;2022-10-18T16:33:58;19.42;51.69
48898;DHT22;34713;50.038;20.000;2022-10-18T16:36:31;19.35;51.86
48898;DHT22;34713;50.038;20.000;2022-10-18T16:38:59;19.30;51.98
48898;DHT22;34713;50.038;20.000;2022-10-18T16:41:26;19.26;52.07
48898;DHT22;34713;50.038;20.000;2022-10-18T16:43:52;19.21;52.15
48898;DHT22;34713;50.038;20.000;2022-10-18T16:46:26;19.18;52.31
48898;DHT22;34713;50.038;20.000;2022-10-18T16:48:53;19.13;52.38
48898;DHT22;34713;50.038;20.000;2022-10-18T16:51:20;19.09;52.49
48898;DHT22;34713;50.038;20.000;2022-10-18T16:53:46;19.03;52.60
48898;DHT22;34713;50.038;20.000;2022-10-18T16:58:48;18.97;52.90
48898;DHT22;34713;50.038;20.000;2022-10-18T17:01:18;18.88;53.01
48898;DHT22;34713;50.038;20.000;2022-10-18T17:03:45;18.85;53.17
48898;DHT22;34713;50.038;20.000;2022-10-18T17:06:26;18.81;53.32
48898;DHT22;34713;50.038;20.000;2022-10-18T17:08:55;18.75;53.40
48898;DHT22;34713;50.038;20.000;2022-10-18T17:11:24;18.70;53.59
48898;DHT22;34713;50.038;20.000;2022-10-18T17:13:51;18.64;53.76
48898;DHT22;34713;50.038;20.000;2022-10-18T17:16:34;18.64;53.88
48898;DHT22;34713;50.038;20.000;2022-10-18T17:19:04;18.58;53.97
48898;DHT22;34713;50.038;20.000;2022-10-18T17:21:30;18.54;54.14
48898;DHT22;34713;50.038;20.000;2022-10-18T17:23:58;18.53;54.22
48898;DHT22;34713;50.038;20.000;2022-10-18T17:26:26;18.47;54.37
48898;DHT22;34713;50.038;20.000;2022-10-18T17:28:55;18.44;54.55
48898;DHT22;34713;50.038;20.000;2022-10-18T17:31:21;18.39;54.66
48898;DHT22;34713;50.038;20.000;2022-10-18T17:33:49;18.34;54.75
48898;DHT22;34713;50.038;20.000;2022-10-18T17:36:15;18.33;54.89
48898;DHT22;34713;50.038;20.000;2022-10-18T17:38:41;18.30;55.01
48898;DHT22;34713;50.038;20.000;2022-10-18T17:41:09;18.27;55.08
48898;DHT22;34713;50.038;20.000;2022-10-18T17:43:37;18.23;55.18
48898;DHT22;34713;50.038;20.000;2022-10-18T17:46:04;18.19;55.26
48898;DHT22;34713;50.038;20.000;2022-10-18T17:48:30;18.16;55.36
48898;DHT22;34713;50.038;20.000;2022-10-18T17:50:55;18.13;55.51
48898;DHT22;34713;50.038;20.000;2022-10-18T17:53:22;18.10;55.62
48898;DHT22;34713;50.038;20.000;2022-10-18T17:55:58;18.05;55.67
48898;DHT22;34713;50.038;20.000;2022-10-18T17:58:24;18.03;55.72
48898;DHT22;34713;50.038;20.000;2022-10-18T18:00:50;18.00;55.82
48898;DHT22;34713;50.038;20.000;2022-10-18T18:03:15;17.96;55.82
48898;DHT22;34713;50.038;20.000;2022-10-18T18:05:41;17.95;55.84
48898;DHT22;34713;50.038;20.000;2022-10-18T18:08:07;17.93;55.92
48898;DHT22;34713;50.038;20.000;2022-10-18T18:10:33;17.92;55.97
48898;DHT22;34713;50.038;20.000;2022-10-18T18:13:01;17.92;55.89
48898;DHT22;34713;50.038;20.000;2022-10-18T18:15:27;17.88;55.95
48898;DHT22;34713;50.038;20.000;2022-10-18T18:17:53;17.86;55.87
48898;DHT22;34713;50.038;20.000;2022-10-18T18:20:19;17.86;55.84
48898;DHT22;34713;50.038;20.000;2022-10-18T18:22:45;17.85;55.86